sensor_id;sensor_type;location;lat;lon;timestamp;P1;durP1;ratioP1;P2;durP2;ratioP2
15381;SDS011;7789;51.364;12.358;2023-12-07T00:00:09;12.50;;;10.40;;
15381;SDS011;7789;51.364;12.358;2023-12-07T00:05:15;11.50;;;10.30;;
15381;SDS011;7789;51.364;12.358;2023-12-07T00:10:20;10.93;;;9.83;;
15381;SDS011;7789;51.364;12.358;2023-12-07T00:15:24;11.97;;;9.57;;
15381;SDS011;7789;51.364;12.358;2023-12-07T00:20:30;11.67;;;10.47;;
15381;SDS011;7789;51.364;12.358;2023-12-07T00:25:34;11.33;;;10.20;;
15381;SDS011;7789;51.364;12.358;2023-12-07T00:30:37;11.27;;;10.07;;
15381;SDS011;7789;51.364;12.358;2023-12-07T00:35:42;12.53;;;10.93;;
15381;SDS011;7789;51.364;12.358;2023-12-07T00:40:47;13.80;;;10.93;;
15381;SDS011;7789;51.364;12.358;2023-12-07T00:45:50;12.17;;;10.43;;
15381;SDS011;7789;51.364;12.358;2023-12-07T00:50:55;11.50;;;10.20;;
15381;SDS011;7789;51.364;12.358;2023-12-07T00:55:59;12.67;;;10.80;;
15381;SDS011;7789;51.364;12.358;2023-12-07T01:01:06;12.67;;;10.30;;
15381;SDS011;7789;51.364;12.358;2023-12-07T01:06:17;13.20;;;10.60;;
15381;SDS011;7789;51.364;12.358;2023-12-07T01:11:22;12.03;;;10.57;;
15381;SDS011;7789;51.364;12.358;2023-12-07T01:16:45;11.97;;;10.77;;
15381;SDS011;7789;51.364;12.358;2023-12-07T01:22:10;13.27;;;11.43;;
15381;SDS011;7789;51.364;12.358;2023-12-07T01:27:33;11.87;;;10.43;;
15381;SDS011;7789;51.364;12.358;2023-12-07T01:32:57;13.67;;;11.07;;
15381;SDS011;7789;51.364;12.358;2023-12-07T01:38:23;12.37;;;10.33;;
15381;SDS011;7789;51.364;12.358;2023-12-07T01:43:46;12.30;;;11.00;;
15381;SDS011;7789;51.364;12.358;2023-12-07T01:48:50;13.93;;;11.13;;
15381;SDS011;7789;51.364;12.358;2023-12-07T01:53:55;13.47;;;11.63;;
15381;SDS011;7789;51.364;12.358;2023-12-07T01:58:59;13.67;;;11.33;;
15381;SDS011;7789;51.364;12.358;2023-12-07T02:04:03;15.10;;;11.40;;
15381;SDS011;7789;51.364;12.358;2023-12-07T02:09:08;13.27;;;10.93;;
15381;SDS011;7789;51.364;12.358;2023-12-07T02:14:13;14.20;;;12.17;;
15381;SDS011;7789;51.364;12.358;2023-12-07T02:19:21;14.17;;;11.73;;
15381;SDS011;7789;51.364;12.358;2023-12-07T02:24:45;14.17;;;11.47;;
15381;SDS011;7789;51.364;12.358;2023-12-07T02:30:00;14.40;;;12.07;;
15381;SDS011;7789;51.364;12.358;2023-12-07T02:35:05;14.63;;;12.73;;
15381;SDS011;7789;51.364;12.358;2023-12-07T02:40:10;17.60;;;13.40;;
15381;SDS011;7789;51.364;12.358;2023-12-07T02:45:18;16.33;;;13.13;;
15381;SDS011;7789;51.364;12.358;2023-12-07T02:50:22;13.77;;;11.53;;
15381;SDS011;7789;51.364;12.358;2023-12-07T02:55:26;14.13;;;12.03;;
15381;SDS011;7789;51.364;12.358;2023-12-07T03:00:31;15.67;;;12.67;;
15381;SDS011;7789;51.364;12.358;2023-12-07T03:05:35;15.37;;;12.20;;
15381;SDS011;7789;51.364;12.358;2023-12-07T03:10:39;14.83;;;12.60;;
15381;SDS011;7789;51.364;12.358;2023-12-07T03:15:44;15.00;;;12.43;;
15381;SDS011;7789;51.364;12.358;2023-12-07T03:20:47;16.77;;;13.13;;
15381;SDS011;7789;51.364;12.358;2023-12-07T03:25:52;15.07;;;12.47;;
15381;SDS011;7789;51.364;12.358;2023-12-07T03:30:57;13.47;;;11.43;;
15381;SDS011;7789;51.364;12.358;2023-12-07T03:36:01;17.53;;;12.63;;
15381;SDS011;7789;51.364;12.358;2023-12-07T03:41:05;15.43;;;12.40;;
15381;SDS011;7789;51.364;12.358;2023-12-07T03:46:09;17.60;;;13.87;;
15381;SDS011;7789;51.364;12.358;2023-12-07T03:51:13;18.57;;;13.70;;
15381;SDS011;7789;51.364;12.358;2023-12-07T03:56:24;15.43;;;12.80;;
15381;SDS011;7789;51.364;12.358;2023-12-07T04:01:30;15.63;;;13.10;;
15381;SDS011;7789;51.364;12.358;2023-12-07T04:06:34;15.90;;;12.70;;
15381;SDS011;7789;51.364;12.358;2023-12-07T04:11:38;14.83;;;12.53;;
15381;SDS011;7789;51.364;12.358;2023-12-07T04:16:42;17.97;;;13.87;;
15381;SDS011;7789;51.364;12.358;2023-12-07T04:21:48;13.83;;;12.00;;
15381;SDS011;7789;51.364;12.358;2023-12-07T04:26:54;15.80;;;12.17;;
15381;SDS011;7789;51.364;12.358;2023-12-07T04:31:59;15.53;;;12.90;;
15381;SDS011;7789;51.364;12.358;2023-12-07T04:37:04;16.43;;;12.70;;
15381;SDS011;7789;51.364;12.358;2023-12-07T04:42:07;18.33;;;14.23;;
15381;SDS011;7789;51.364;12.358;2023-12-07T04:47:12;15.37;;;12.70;;
15381;SDS011;7789;51.364;12.358;2023-12-07T04:52:17;15.60;;;12.93;;
15381;SDS011;7789;51.364;12.358;2023-12-07T04:57:21;15.30;;;12.20;;
15381;SDS011;7789;51.364;12.358;2023-12-07T05:02:26;16.60;;;13.50;;
15381;SDS011;7789;51.364;12.358;2023-12-07T05:07:30;15.07;;;13.03;;
15381;SDS011;7789;51.364;12.358;2023-12-07T05:12:34;17.17;;;13.87;;
15381;SDS011;7789;51.364;12.358;2023-12-07T05:17:41;14.40;;;12.80;;
15381;SDS011;7789;51.364;12.358;2023-12-07T05:22:46;15.67;;;12.90;;
15381;SDS011;7789;51.364;12.358;2023-12-07T05:27:50;18.03;;;13.43;;
15381;SDS011;7789;51.364;12.358;2023-12-07T05:32:55;18.63;;;13.87;;
15381;SDS011;7789;51.364;12.358;2023-12-07T05:37:59;17.10;;;13.57;;
15381;SDS011;7789;51.364;12.358;2023-12-07T05:43:03;17.93;;;14.20;;
15381;SDS011;7789;51.364;12.358;2023-12-07T05:48:09;15.13;;;13.03;;
15381;SDS011;7789;51.364;12.358;2023-12-07T05:53:13;18.10;;;14.70;;
15381;SDS011;7789;51.364;12.358;2023-12-07T05:58:17;20.20;;;15.20;;
15381;SDS011;7789;51.364;12.358;2023-12-07T06:03:24;19.67;;;14.10;;
15381;SDS011;7789;51.364;12.358;2023-12-07T06:08:28;18.10;;;15.10;;
15381;SDS011;7789;51.364;12.358;2023-12-07T06:13:31;17.17;;;14.23;;
15381;SDS011;7789;51.364;12.358;2023-12-07T06:18:37;17.03;;;13.87;;
15381;SDS011;7789;51.364;12.358;2023-12-07T06:23:40;18.90;;;13.17;;
15381;SDS011;7789;51.364;12.358;2023-12-07T06:28:44;18.30;;;14.80;;
15381;SDS011;7789;51.364;12.358;2023-12-07T06:33:50;17.70;;;13.97;;
15381;SDS011;7789;51.364;12.358;2023-12-07T06:38:53;17.33;;;14.13;;
15381;SDS011;7789;51.364;12.358;2023-12-07T06:43:57;19.37;;;15.40;;
15381;SDS011;7789;51.364;12.358;2023-12-07T06:49:02;19.07;;;15.80;;
15381;SDS011;7789;51.364;12.358;2023-12-07T06:54:07;18.30;;;15.77;;
15381;SDS011;7789;51.364;12.358;2023-12-07T06:59:12;20.27;;;16.50;;
15381;SDS011;7789;51.364;12.358;2023-12-07T07:04:19;19.50;;;15.87;;
15381;SDS011;7789;51.364;12.358;2023-12-07T07:09:23;19.27;;;15.23;;
15381;SDS011;7789;51.364;12.358;2023-12-07T07:14:26;19.93;;;16.10;;
15381;SDS011;7789;51.364;12.358;2023-12-07T07:19:32;18.57;;;14.83;;
15381;SDS011;7789;51.364;12.358;2023-12-07T07:24:35;18.97;;;14.43;;
15381;SDS011;7789;51.364;12.358;2023-12-07T07:29:39;20.50;;;15.67;;
15381;SDS011;7789;51.364;12.358;2023-12-07T07:34:44;19.30;;;15.03;;
15381;SDS011;7789;51.364;12.358;2023-12-07T07:39:47;20.00;;;16.47;;
15381;SDS011;7789;51.364;12.358;2023-12-07T07:44:51;19.90;;;15.50;;
15381;SDS011;7789;51.364;12.358;2023-12-07T07:49:57;17.37;;;14.77;;
15381;SDS011;7789;51.364;12.358;2023-12-07T07:55:07;22.13;;;16.17;;
15381;SDS011;7789;51.364;12.358;2023-12-07T08:00:11;20.30;;;14.70;;
15381;SDS011;7789;51.364;12.358;2023-12-07T08:05:20;18.13;;;15.23;;
15381;SDS011;7789;51.364;12.358;2023-12-07T08:10:24;20.77;;;15.93;;
15381;SDS011;7789;51.364;12.358;2023-12-07T08:15:28;21.67;;;15.87;;
15381;SDS011;7789;51.364;12.358;2023-12-07T08:20:33;18.30;;;15.10;;
15381;SDS011;7789;51.364;12.358;2023-12-07T08:25:38;17.33;;;14.37;;
15381;SDS011;7789;51.364;12.358;2023-12-07T08:30:42;20.27;;;14.60;;
15381;SDS011;7789;51.364;12.358;2023-12-07T08:35:47;20.17;;;15.70;;
15381;SDS011;7789;51.364;12.358;2023-12-07T08:40:56;16.63;;;14.50;;
15381;SDS011;7789;51.364;12.358;2023-12-07T08:46:00;21.83;;;14.40;;
15381;SDS011;7789;51.364;12.358;2023-12-07T08:51:06;17.23;;;14.17;;
15381;SDS011;7789;51.364;12.358;2023-12-07T08:56:10;20.17;;;14.57;;
15381;SDS011;7789;51.364;12.358;2023-12-07T09:01:15;15.83;;;13.63;;
15381;SDS011;7789;51.364;12.358;2023-12-07T09:06:34;18.67;;;15.77;;
15381;SDS011;7789;51.364;12.358;2023-12-07T09:11:39;17.23;;;13.77;;
15381;SDS011;7789;51.364;12.358;2023-12-07T09:16:43;16.60;;;13.33;;
15381;SDS011;7789;51.364;12.358;2023-12-07T09:21:49;17.33;;;13.00;;
15381;SDS011;7789;51.364;12.358;2023-12-07T09:26:52;18.00;;;12.70;;
15381;SDS011;7789;51.364;12.358;2023-12-07T09:31:56;16.30;;;12.33;;
15381;SDS011;7789;51.364;12.358;2023-12-07T09:37:09;15.10;;;12.63;;
15381;SDS011;7789;51.364;12.358;2023-12-07T09:42:13;17.87;;;12.87;;
15381;SDS011;7789;51.364;12.358;2023-12-07T09:47:23;16.40;;;13.33;;
15381;SDS011;7789;51.364;12.358;2023-12-07T09:52:38;17.43;;;14.20;;
15381;SDS011;7789;51.364;12.358;2023-12-07T09:57:54;17.63;;;14.03;;
15381;SDS011;7789;51.364;12.358;2023-12-07T10:03:00;17.40;;;12.90;;
15381;SDS011;7789;51.364;12.358;2023-12-07T10:08:05;14.60;;;12.67;;
15381;SDS011;7789;51.364;12.358;2023-12-07T10:13:11;16.00;;;13.73;;
15381;SDS011;7789;51.364;12.358;2023-12-07T10:18:15;17.20;;;13.07;;
15381;SDS011;7789;51.364;12.358;2023-12-07T10:23:28;17.33;;;13.17;;
15381;SDS011;7789;51.364;12.358;2023-12-07T10:28:34;17.87;;;13.33;;
15381;SDS011;7789;51.364;12.358;2023-12-07T10:33:39;17.03;;;14.63;;
15381;SDS011;7789;51.364;12.358;2023-12-07T10:38:46;19.47;;;15.50;;
15381;SDS011;7789;51.364;12.358;2023-12-07T10:43:54;20.47;;;14.53;;
15381;SDS011;7789;51.364;12.358;2023-12-07T10:49:03;16.10;;;14.00;;
15381;SDS011;7789;51.364;12.358;2023-12-07T10:54:24;21.00;;;15.33;;
15381;SDS011;7789;51.364;12.358;2023-12-07T10:59:41;19.83;;;16.20;;
15381;SDS011;7789;51.364;12.358;2023-12-07T11:04:46;20.43;;;14.90;;
15381;SDS011;7789;51.364;12.358;2023-12-07T11:10:07;19.30;;;16.07;;
15381;SDS011;7789;51.364;12.358;2023-12-07T11:15:18;19.30;;;14.30;;
15381;SDS011;7789;51.364;12.358;2023-12-07T11:20:32;20.23;;;16.03;;
15381;SDS011;7789;51.364;12.358;2023-12-07T11:25:44;17.90;;;14.63;;
15381;SDS011;7789;51.364;12.358;2023-12-07T11:30:49;16.87;;;13.90;;
15381;SDS011;7789;51.364;12.358;2023-12-07T11:36:04;17.80;;;15.13;;
15381;SDS011;7789;51.364;12.358;2023-12-07T11:41:12;18.23;;;13.70;;
15381;SDS011;7789;51.364;12.358;2023-12-07T11:46:15;17.00;;;14.23;;
15381;SDS011;7789;51.364;12.358;2023-12-07T11:51:29;24.17;;;15.50;;
15381;SDS011;7789;51.364;12.358;2023-12-07T11:56:35;18.80;;;14.63;;
15381;SDS011;7789;51.364;12.358;2023-12-07T12:01:38;21.40;;;15.63;;
15381;SDS011;7789;51.364;12.358;2023-12-07T12:06:44;19.67;;;14.33;;
15381;SDS011;7789;51.364;12.358;2023-12-07T12:11:50;18.17;;;15.20;;
15381;SDS011;7789;51.364;12.358;2023-12-07T12:16:55;19.73;;;15.33;;
15381;SDS011;7789;51.364;12.358;2023-12-07T12:22:00;17.43;;;14.60;;
15381;SDS011;7789;51.364;12.358;2023-12-07T12:27:10;19.80;;;14.37;;
15381;SDS011;7789;51.364;12.358;2023-12-07T12:32:14;18.27;;;14.47;;
15381;SDS011;7789;51.364;12.358;2023-12-07T12:37:19;21.37;;;15.93;;
15381;SDS011;7789;51.364;12.358;2023-12-07T12:42:25;17.80;;;15.00;;
15381;SDS011;7789;51.364;12.358;2023-12-07T12:47:30;16.77;;;14.03;;
15381;SDS011;7789;51.364;12.358;2023-12-07T12:52:34;18.10;;;13.80;;
15381;SDS011;7789;51.364;12.358;2023-12-07T12:57:40;17.90;;;14.10;;
15381;SDS011;7789;51.364;12.358;2023-12-07T13:02:44;17.97;;;13.80;;
15381;SDS011;7789;51.364;12.358;2023-12-07T13:07:50;15.80;;;13.17;;
15381;SDS011;7789;51.364;12.358;2023-12-07T13:13:15;17.30;;;13.60;;
15381;SDS011;7789;51.364;12.358;2023-12-07T13:18:19;18.23;;;14.57;;
15381;SDS011;7789;51.364;12.358;2023-12-07T13:23:23;19.20;;;14.10;;
15381;SDS011;7789;51.364;12.358;2023-12-07T13:28:29;16.40;;;13.43;;
15381;SDS011;7789;51.364;12.358;2023-12-07T13:33:34;15.47;;;13.17;;
15381;SDS011;7789;51.364;12.358;2023-12-07T13:38:53;15.13;;;12.20;;
15381;SDS011;7789;51.364;12.358;2023-12-07T13:44:00;15.57;;;12.63;;
15381;SDS011;7789;51.364;12.358;2023-12-07T13:49:04;16.83;;;12.30;;
15381;SDS011;7789;51.364;12.358;2023-12-07T13:54:19;15.63;;;12.30;;
15381;SDS011;7789;51.364;12.358;2023-12-07T13:59:30;12.60;;;10.40;;
15381;SDS011;7789;51.364;12.358;2023-12-07T14:04:35;13.43;;;11.40;;
15381;SDS011;7789;51.364;12.358;2023-12-07T14:09:42;14.40;;;10.90;;
15381;SDS011;7789;51.364;12.358;2023-12-07T14:15:00;12.27;;;10.73;;
15381;SDS011;7789;51.364;12.358;2023-12-07T14:20:04;12.07;;;9.87;;
15381;SDS011;7789;51.364;12.358;2023-12-07T14:25:28;10.73;;;9.20;;
15381;SDS011;7789;51.364;12.358;2023-12-07T14:30:34;13.20;;;9.47;;
15381;SDS011;7789;51.364;12.358;2023-12-07T14:35:38;11.53;;;9.90;;
15381;SDS011;7789;51.364;12.358;2023-12-07T14:40:42;11.20;;;9.77;;
15381;SDS011;7789;51.364;12.358;2023-12-07T14:45:49;11.87;;;9.57;;
15381;SDS011;7789;51.364;12.358;2023-12-07T14:50:54;11.40;;;9.47;;
15381;SDS011;7789;51.364;12.358;2023-12-07T14:55:59;12.10;;;9.90;;
15381;SDS011;7789;51.364;12.358;2023-12-07T15:01:06;11.63;;;9.97;;
15381;SDS011;7789;51.364;12.358;2023-12-07T15:06:10;12.03;;;10.30;;
15381;SDS011;7789;51.364;12.358;2023-12-07T15:11:14;10.97;;;9.50;;
15381;SDS011;7789;51.364;12.358;2023-12-07T15:16:19;12.33;;;9.60;;
15381;SDS011;7789;51.364;12.358;2023-12-07T15:21:24;12.93;;;10.40;;
15381;SDS011;7789;51.364;12.358;2023-12-07T15:26:29;11.80;;;10.07;;
15381;SDS011;7789;51.364;12.358;2023-12-07T15:31:34;12.03;;;10.37;;
15381;SDS011;7789;51.364;12.358;2023-12-07T15:36:38;11.07;;;9.73;;
15381;SDS011;7789;51.364;12.358;2023-12-07T15:41:44;13.20;;;10.37;;
15381;SDS011;7789;51.364;12.358;2023-12-07T15:46:50;12.87;;;10.27;;
15381;SDS011;7789;51.364;12.358;2023-12-07T15:52:01;12.17;;;10.30;;
15381;SDS011;7789;51.364;12.358;2023-12-07T15:57:07;10.37;;;9.23;;
15381;SDS011;7789;51.364;12.358;2023-12-07T16:02:14;11.47;;;9.67;;
15381;SDS011;7789;51.364;12.358;2023-12-07T16:07:20;13.40;;;10.10;;
15381;SDS011;7789;51.364;12.358;2023-12-07T16:12:24;12.30;;;9.67;;
15381;SDS011;7789;51.364;12.358;2023-12-07T16:17:29;14.43;;;10.30;;
15381;SDS011;7789;51.364;12.358;2023-12-07T16:22:32;14.97;;;11.17;;
15381;SDS011;7789;51.364;12.358;2023-12-07T16:27:36;13.30;;;10.33;;
15381;SDS011;7789;51.364;12.358;2023-12-07T16:32:41;13.40;;;10.80;;
15381;SDS011;7789;51.364;12.358;2023-12-07T16:37:47;17.03;;;11.97;;
15381;SDS011;7789;51.364;12.358;2023-12-07T16:42:50;18.33;;;12.53;;
15381;SDS011;7789;51.364;12.358;2023-12-07T16:47:57;16.73;;;12.37;;
15381;SDS011;7789;51.364;12.358;2023-12-07T16:53:00;16.13;;;11.97;;
15381;SDS011;7789;51.364;12.358;2023-12-07T16:58:05;16.30;;;12.27;;
15381;SDS011;7789;51.364;12.358;2023-12-07T17:03:11;13.87;;;10.77;;
15381;SDS011;7789;51.364;12.358;2023-12-07T17:08:16;13.73;;;11.47;;
15381;SDS011;7789;51.364;12.358;2023-12-07T17:13:23;14.97;;;11.20;;
15381;SDS011;7789;51.364;12.358;2023-12-07T17:18:32;14.50;;;11.07;;
15381;SDS011;7789;51.364;12.358;2023-12-07T17:23:36;14.53;;;11.63;;
15381;SDS011;7789;51.364;12.358;2023-12-07T17:28:43;15.63;;;11.33;;
15381;SDS011;7789;51.364;12.358;2023-12-07T17:33:51;14.80;;;10.60;;
15381;SDS011;7789;51.364;12.358;2023-12-07T17:38:58;15.03;;;10.33;;
15381;SDS011;7789;51.364;12.358;2023-12-07T17:44:02;14.97;;;11.27;;
15381;SDS011;7789;51.364;12.358;2023-12-07T17:49:09;15.67;;;11.93;;
15381;SDS011;7789;51.364;12.358;2023-12-07T17:54:14;14.40;;;10.87;;
15381;SDS011;7789;51.364;12.358;2023-12-07T17:59:18;15.70;;;11.47;;
15381;SDS011;7789;51.364;12.358;2023-12-07T18:04:24;11.50;;;9.47;;
15381;SDS011;7789;51.364;12.358;2023-12-07T18:09:29;12.47;;;10.03;;
15381;SDS011;7789;51.364;12.358;2023-12-07T18:14:34;10.83;;;9.33;;
15381;SDS011;7789;51.364;12.358;2023-12-07T18:19:39;13.00;;;9.70;;
15381;SDS011;7789;51.364;12.358;2023-12-07T18:24:42;12.67;;;9.77;;
15381;SDS011;7789;51.364;12.358;2023-12-07T18:29:46;13.97;;;10.10;;
15381;SDS011;7789;51.364;12.358;2023-12-07T18:34:51;11.07;;;9.00;;
15381;SDS011;7789;51.364;12.358;2023-12-07T18:39:55;11.37;;;8.53;;
15381;SDS011;7789;51.364;12.358;2023-12-07T18:45:00;12.03;;;8.43;;
15381;SDS011;7789;51.364;12.358;2023-12-07T18:50:06;10.30;;;8.17;;
15381;SDS011;7789;51.364;12.358;2023-12-07T18:55:11;11.77;;;8.20;;
15381;SDS011;7789;51.364;12.358;2023-12-07T19:00:16;10.23;;;7.57;;
15381;SDS011;7789;51.364;12.358;2023-12-07T19:05:23;9.37;;;7.60;;
15381;SDS011;7789;51.364;12.358;2023-12-07T19:10:27;9.50;;;7.43;;
15381;SDS011;7789;51.364;12.358;2023-12-07T19:15:30;10.77;;;8.23;;
15381;SDS011;7789;51.364;12.358;2023-12-07T19:20:35;11.37;;;8.87;;
15381;SDS011;7789;51.364;12.358;2023-12-07T19:25:40;12.67;;;8.83;;
15381;SDS011;7789;51.364;12.358;2023-12-07T19:30:44;14.63;;;10.17;;
15381;SDS011;7789;51.364;12.358;2023-12-07T19:35:49;15.67;;;11.70;;
15381;SDS011;7789;51.364;12.358;2023-12-07T19:40:53;14.70;;;10.77;;
15381;SDS011;7789;51.364;12.358;2023-12-07T19:45:56;14.93;;;11.60;;
15381;SDS011;7789;51.364;12.358;2023-12-07T19:51:02;16.80;;;11.20;;
15381;SDS011;7789;51.364;12.358;2023-12-07T19:56:06;16.90;;;11.47;;
15381;SDS011;7789;51.364;12.358;2023-12-07T20:01:11;13.80;;;11.13;;
15381;SDS011;7789;51.364;12.358;2023-12-07T20:06:16;14.70;;;11.30;;
15381;SDS011;7789;51.364;12.358;2023-12-07T20:11:31;16.07;;;11.50;;
15381;SDS011;7789;51.364;12.358;2023-12-07T20:16:35;16.87;;;11.90;;
15381;SDS011;7789;51.364;12.358;2023-12-07T20:21:46;16.57;;;11.87;;
15381;SDS011;7789;51.364;12.358;2023-12-07T20:26:50;16.17;;;12.63;;
15381;SDS011;7789;51.364;12.358;2023-12-07T20:31:53;17.60;;;13.27;;
15381;SDS011;7789;51.364;12.358;2023-12-07T20:36:59;19.50;;;14.37;;
15381;SDS011;7789;51.364;12.358;2023-12-07T20:42:03;20.77;;;15.23;;
15381;SDS011;7789;51.364;12.358;2023-12-07T20:47:09;17.17;;;13.33;;
15381;SDS011;7789;51.364;12.358;2023-12-07T20:52:15;19.27;;;14.30;;
15381;SDS011;7789;51.364;12.358;2023-12-07T20:57:19;20.23;;;13.50;;
15381;SDS011;7789;51.364;12.358;2023-12-07T21:02:23;19.77;;;13.43;;
15381;SDS011;7789;51.364;12.358;2023-12-07T21:07:29;19.07;;;12.83;;
15381;SDS011;7789;51.364;12.358;2023-12-07T21:12:32;23.80;;;16.30;;
15381;SDS011;7789;51.364;12.358;2023-12-07T21:17:36;22.13;;;15.33;;
15381;SDS011;7789;51.364;12.358;2023-12-07T21:22:41;20.73;;;15.23;;
15381;SDS011;7789;51.364;12.358;2023-12-07T21:27:45;22.77;;;16.63;;
15381;SDS011;7789;51.364;12.358;2023-12-07T21:32:48;20.90;;;16.23;;
15381;SDS011;7789;51.364;12.358;2023-12-07T21:37:53;19.60;;;14.60;;
15381;SDS011;7789;51.364;12.358;2023-12-07T21:42:57;21.93;;;17.40;;
15381;SDS011;7789;51.364;12.358;2023-12-07T21:48:01;21.90;;;16.33;;
15381;SDS011;7789;51.364;12.358;2023-12-07T21:53:07;21.23;;;15.37;;
15381;SDS011;7789;51.364;12.358;2023-12-07T21:58:11;22.70;;;15.27;;
15381;SDS011;7789;51.364;12.358;2023-12-07T22:03:14;20.17;;;14.57;;
15381;SDS011;7789;51.364;12.358;2023-12-07T22:08:19;17.70;;;13.03;;
15381;SDS011;7789;51.364;12.358;2023-12-07T22:13:23;20.87;;;14.97;;
15381;SDS011;7789;51.364;12.358;2023-12-07T22:18:27;17.10;;;12.97;;
15381;SDS011;7789;51.364;12.358;2023-12-07T22:23:32;16.77;;;12.83;;
15381;SDS011;7789;51.364;12.358;2023-12-07T22:28:36;18.57;;;13.70;;
15381;SDS011;7789;51.364;12.358;2023-12-07T22:33:40;19.50;;;14.40;;
15381;SDS011;7789;51.364;12.358;2023-12-07T22:39:01;19.37;;;14.30;;
15381;SDS011;7789;51.364;12.358;2023-12-07T22:44:05;17.03;;;13.33;;
15381;SDS011;7789;51.364;12.358;2023-12-07T22:49:09;22.77;;;15.00;;
15381;SDS011;7789;51.364;12.358;2023-12-07T22:54:15;18.87;;;14.47;;
15381;SDS011;7789;51.364;12.358;2023-12-07T22:59:19;23.23;;;15.60;;
15381;SDS011;7789;51.364;12.358;2023-12-07T23:04:23;20.07;;;14.13;;
15381;SDS011;7789;51.364;12.358;2023-12-07T23:09:28;21.67;;;15.33;;
15381;SDS011;7789;51.364;12.358;2023-12-07T23:14:32;21.23;;;14.57;;
15381;SDS011;7789;51.364;12.358;2023-12-07T23:19:36;19.83;;;14.97;;
15381;SDS011;7789;51.364;12.358;2023-12-07T23:24:49;18.20;;;13.43;;
15381;SDS011;7789;51.364;12.358;2023-12-07T23:29:53;20.83;;;14.77;;
15381;SDS011;7789;51.364;12.358;2023-12-07T23:34:57;19.50;;;14.33;;
15381;SDS011;7789;51.364;12.358;2023-12-07T23:40:03;19.87;;;14.97;;
15381;SDS011;7789;51.364;12.358;2023-12-07T23:45:10;21.43;;;14.50;;
15381;SDS011;7789;51.364;12.358;2023-12-07T23:50:14;18.03;;;14.23;;
15381;SDS011;7789;51.364;12.358;2023-12-07T23:55:20;20.40;;;14.10;;
